sensor_id;sensor_type;location;lat;lon;timestamp;P1;durP1;ratioP1;P2;durP2;ratioP2
19002;SDS011;9634;51.040;13.794;2023-02-01T00:03:16;10.77;;;2.67;;
19002;SDS011;9634;51.040;13.794;2023-02-01T00:08:19;7.50;;;3.03;;
19002;SDS011;9634;51.040;13.794;2023-02-01T00:13:22;8.47;;;2.83;;
19002;SDS011;9634;51.040;13.794;2023-02-01T00:18:25;5.63;;;2.73;;
19002;SDS011;9634;51.040;13.794;2023-02-01T00:23:27;7.53;;;2.63;;
19002;SDS011;9634;51.040;13.794;2023-02-01T00:28:31;7.97;;;2.70;;
19002;SDS011;9634;51.040;13.794;2023-02-01T00:33:33;11.90;;;3.40;;
19002;SDS011;9634;51.040;13.794;2023-02-01T00:38:37;8.40;;;3.07;;
19002;SDS011;9634;51.040;13.794;2023-02-01T00:43:41;9.83;;;2.70;;
19002;SDS011;9634;51.040;13.794;2023-02-01T00:48:44;10.30;;;3.50;;
19002;SDS011;9634;51.040;13.794;2023-02-01T00:53:46;9.30;;;2.33;;
19002;SDS011;9634;51.040;13.794;2023-02-01T00:58:50;6.97;;;2.67;;
19002;SDS011;9634;51.040;13.794;2023-02-01T01:03:53;4.43;;;2.20;;
19002;SDS011;9634;51.040;13.794;2023-02-01T01:08:57;6.47;;;1.77;;
19002;SDS011;9634;51.040;13.794;2023-02-01T01:14:02;7.87;;;1.80;;
19002;SDS011;9634;51.040;13.794;2023-02-01T01:19:05;6.03;;;2.03;;
19002;SDS011;9634;51.040;13.794;2023-02-01T01:24:10;14.47;;;2.50;;
19002;SDS011;9634;51.040;13.794;2023-02-01T01:29:14;10.10;;;2.27;;
19002;SDS011;9634;51.040;13.794;2023-02-01T01:34:16;10.33;;;2.40;;
19002;SDS011;9634;51.040;13.794;2023-02-01T01:39:18;11.73;;;2.63;;
19002;SDS011;9634;51.040;13.794;2023-02-01T01:50:03;6.43;;;1.70;;
19002;SDS011;9634;51.040;13.794;2023-02-01T01:55:07;10.90;;;2.57;;
19002;SDS011;9634;51.040;13.794;2023-02-01T02:00:13;11.07;;;2.23;;
19002;SDS011;9634;51.040;13.794;2023-02-01T02:05:18;7.43;;;2.70;;
19002;SDS011;9634;51.040;13.794;2023-02-01T02:10:21;10.93;;;2.57;;
19002;SDS011;9634;51.040;13.794;2023-02-01T02:15:48;9.67;;;2.27;;
19002;SDS011;9634;51.040;13.794;2023-02-01T02:21:10;7.90;;;2.13;;
19002;SDS011;9634;51.040;13.794;2023-02-01T02:26:22;6.90;;;2.03;;
19002;SDS011;9634;51.040;13.794;2023-02-01T02:37:02;10.67;;;1.73;;
19002;SDS011;9634;51.040;13.794;2023-02-01T02:42:12;13.37;;;2.10;;
19002;SDS011;9634;51.040;13.794;2023-02-01T02:47:38;7.60;;;2.23;;
19002;SDS011;9634;51.040;13.794;2023-02-01T02:52:52;9.47;;;2.30;;
19002;SDS011;9634;51.040;13.794;2023-02-01T02:58:18;12.57;;;2.40;;
19002;SDS011;9634;51.040;13.794;2023-02-01T03:03:40;17.93;;;2.50;;
19002;SDS011;9634;51.040;13.794;2023-02-01T03:09:03;13.10;;;2.63;;
19002;SDS011;9634;51.040;13.794;2023-02-01T03:14:10;6.67;;;1.80;;
19002;SDS011;9634;51.040;13.794;2023-02-01T03:19:15;8.53;;;1.93;;
19002;SDS011;9634;51.040;13.794;2023-02-01T03:24:25;14.50;;;2.40;;
19002;SDS011;9634;51.040;13.794;2023-02-01T03:29:37;11.00;;;2.23;;
19002;SDS011;9634;51.040;13.794;2023-02-01T03:34:43;7.77;;;1.67;;
19002;SDS011;9634;51.040;13.794;2023-02-01T03:39:48;10.13;;;1.97;;
19002;SDS011;9634;51.040;13.794;2023-02-01T03:44:58;13.13;;;2.40;;
19002;SDS011;9634;51.040;13.794;2023-02-01T03:50:09;8.27;;;2.53;;
19002;SDS011;9634;51.040;13.794;2023-02-01T03:55:17;8.97;;;2.13;;
19002;SDS011;9634;51.040;13.794;2023-02-01T04:00:22;9.53;;;1.87;;
19002;SDS011;9634;51.040;13.794;2023-02-01T04:05:29;10.30;;;1.83;;
19002;SDS011;9634;51.040;13.794;2023-02-01T04:10:37;9.33;;;2.27;;
19002;SDS011;9634;51.040;13.794;2023-02-01T04:15:40;9.17;;;1.93;;
19002;SDS011;9634;51.040;13.794;2023-02-01T04:20:42;13.33;;;2.30;;
19002;SDS011;9634;51.040;13.794;2023-02-01T04:25:47;9.00;;;2.00;;
19002;SDS011;9634;51.040;13.794;2023-02-01T04:30:49;11.60;;;2.23;;
19002;SDS011;9634;51.040;13.794;2023-02-01T04:35:51;14.90;;;2.50;;
19002;SDS011;9634;51.040;13.794;2023-02-01T04:40:55;7.43;;;1.77;;
19002;SDS011;9634;51.040;13.794;2023-02-01T04:45:57;10.73;;;2.80;;
19002;SDS011;9634;51.040;13.794;2023-02-01T04:50:59;9.13;;;2.33;;
19002;SDS011;9634;51.040;13.794;2023-02-01T04:56:03;8.63;;;2.00;;
19002;SDS011;9634;51.040;13.794;2023-02-01T05:01:06;11.37;;;1.63;;
19002;SDS011;9634;51.040;13.794;2023-02-01T05:06:08;7.67;;;2.03;;
19002;SDS011;9634;51.040;13.794;2023-02-01T05:11:12;8.60;;;2.27;;
19002;SDS011;9634;51.040;13.794;2023-02-01T05:16:28;16.83;;;3.27;;
19002;SDS011;9634;51.040;13.794;2023-02-01T05:21:31;12.33;;;1.97;;
19002;SDS011;9634;51.040;13.794;2023-02-01T05:26:34;11.80;;;2.10;;
19002;SDS011;9634;51.040;13.794;2023-02-01T05:31:37;15.00;;;3.23;;
19002;SDS011;9634;51.040;13.794;2023-02-01T05:36:39;13.93;;;2.40;;
19002;SDS011;9634;51.040;13.794;2023-02-01T05:41:43;15.80;;;2.43;;
19002;SDS011;9634;51.040;13.794;2023-02-01T05:46:45;11.73;;;2.30;;
19002;SDS011;9634;51.040;13.794;2023-02-01T05:51:47;8.57;;;1.80;;
19002;SDS011;9634;51.040;13.794;2023-02-01T05:56:51;9.83;;;2.40;;
19002;SDS011;9634;51.040;13.794;2023-02-01T06:01:53;10.77;;;1.97;;
19002;SDS011;9634;51.040;13.794;2023-02-01T06:06:55;11.23;;;2.67;;
19002;SDS011;9634;51.040;13.794;2023-02-01T06:11:59;10.03;;;2.27;;
19002;SDS011;9634;51.040;13.794;2023-02-01T06:17:02;11.47;;;2.40;;
19002;SDS011;9634;51.040;13.794;2023-02-01T06:22:05;10.23;;;2.63;;
19002;SDS011;9634;51.040;13.794;2023-02-01T06:27:09;11.17;;;2.50;;
19002;SDS011;9634;51.040;13.794;2023-02-01T06:32:13;7.50;;;2.43;;
19002;SDS011;9634;51.040;13.794;2023-02-01T06:37:15;10.03;;;2.27;;
19002;SDS011;9634;51.040;13.794;2023-02-01T06:42:19;14.27;;;2.20;;
19002;SDS011;9634;51.040;13.794;2023-02-01T06:47:21;18.23;;;3.03;;
19002;SDS011;9634;51.040;13.794;2023-02-01T06:52:23;8.10;;;2.40;;
19002;SDS011;9634;51.040;13.794;2023-02-01T06:57:27;8.40;;;2.23;;
19002;SDS011;9634;51.040;13.794;2023-02-01T07:02:31;10.97;;;2.40;;
19002;SDS011;9634;51.040;13.794;2023-02-01T07:07:33;10.53;;;2.77;;
19002;SDS011;9634;51.040;13.794;2023-02-01T07:12:36;9.80;;;2.40;;
19002;SDS011;9634;51.040;13.794;2023-02-01T07:17:39;9.53;;;2.53;;
19002;SDS011;9634;51.040;13.794;2023-02-01T07:22:41;13.17;;;3.37;;
19002;SDS011;9634;51.040;13.794;2023-02-01T07:27:44;11.40;;;2.83;;
19002;SDS011;9634;51.040;13.794;2023-02-01T07:32:47;13.33;;;2.40;;
19002;SDS011;9634;51.040;13.794;2023-02-01T07:37:49;14.60;;;2.50;;
19002;SDS011;9634;51.040;13.794;2023-02-01T07:42:52;18.23;;;3.30;;
19002;SDS011;9634;51.040;13.794;2023-02-01T07:47:55;7.53;;;2.40;;
19002;SDS011;9634;51.040;13.794;2023-02-01T07:52:58;9.57;;;2.70;;
19002;SDS011;9634;51.040;13.794;2023-02-01T07:58:02;6.00;;;2.13;;
19002;SDS011;9634;51.040;13.794;2023-02-01T08:03:04;9.53;;;3.03;;
19002;SDS011;9634;51.040;13.794;2023-02-01T08:08:07;12.80;;;3.10;;
19002;SDS011;9634;51.040;13.794;2023-02-01T08:13:10;13.97;;;3.23;;
19002;SDS011;9634;51.040;13.794;2023-02-01T08:18:12;14.20;;;2.70;;
19002;SDS011;9634;51.040;13.794;2023-02-01T08:23:16;10.07;;;2.30;;
19002;SDS011;9634;51.040;13.794;2023-02-01T08:28:20;10.57;;;2.87;;
19002;SDS011;9634;51.040;13.794;2023-02-01T08:33:22;10.07;;;2.70;;
19002;SDS011;9634;51.040;13.794;2023-02-01T08:38:24;13.10;;;3.13;;
19002;SDS011;9634;51.040;13.794;2023-02-01T08:43:28;12.33;;;3.30;;
19002;SDS011;9634;51.040;13.794;2023-02-01T08:48:30;11.07;;;2.57;;
19002;SDS011;9634;51.040;13.794;2023-02-01T08:53:33;9.10;;;2.43;;
19002;SDS011;9634;51.040;13.794;2023-02-01T08:58:37;6.33;;;2.20;;
19002;SDS011;9634;51.040;13.794;2023-02-01T09:03:40;11.77;;;3.00;;
19002;SDS011;9634;51.040;13.794;2023-02-01T09:08:43;9.00;;;2.30;;
19002;SDS011;9634;51.040;13.794;2023-02-01T09:13:48;12.27;;;2.83;;
19002;SDS011;9634;51.040;13.794;2023-02-01T09:18:50;11.23;;;2.10;;
19002;SDS011;9634;51.040;13.794;2023-02-01T09:23:52;9.40;;;2.37;;
19002;SDS011;9634;51.040;13.794;2023-02-01T09:28:56;13.93;;;3.00;;
19002;SDS011;9634;51.040;13.794;2023-02-01T09:33:58;11.23;;;2.17;;
19002;SDS011;9634;51.040;13.794;2023-02-01T09:39:00;10.30;;;2.07;;
19002;SDS011;9634;51.040;13.794;2023-02-01T09:44:06;12.07;;;2.67;;
19002;SDS011;9634;51.040;13.794;2023-02-01T09:49:18;7.87;;;2.00;;
19002;SDS011;9634;51.040;13.794;2023-02-01T09:54:24;11.57;;;2.50;;
19002;SDS011;9634;51.040;13.794;2023-02-01T09:59:31;13.03;;;2.87;;
19002;SDS011;9634;51.040;13.794;2023-02-01T10:04:39;9.27;;;2.57;;
19002;SDS011;9634;51.040;13.794;2023-02-01T10:09:49;8.27;;;2.27;;
19002;SDS011;9634;51.040;13.794;2023-02-01T10:15:01;5.70;;;2.20;;
19002;SDS011;9634;51.040;13.794;2023-02-01T10:20:12;9.00;;;2.30;;
19002;SDS011;9634;51.040;13.794;2023-02-01T10:25:20;7.67;;;2.37;;
19002;SDS011;9634;51.040;13.794;2023-02-01T10:30:29;7.80;;;2.30;;
19002;SDS011;9634;51.040;13.794;2023-02-01T10:35:36;8.97;;;2.60;;
19002;SDS011;9634;51.040;13.794;2023-02-01T10:40:39;8.33;;;2.87;;
19002;SDS011;9634;51.040;13.794;2023-02-01T10:45:44;6.47;;;2.17;;
19002;SDS011;9634;51.040;13.794;2023-02-01T10:50:47;11.60;;;3.00;;
19002;SDS011;9634;51.040;13.794;2023-02-01T10:55:55;11.23;;;2.73;;
19002;SDS011;9634;51.040;13.794;2023-02-01T11:01:00;10.93;;;2.67;;
19002;SDS011;9634;51.040;13.794;2023-02-01T11:06:09;10.63;;;2.47;;
19002;SDS011;9634;51.040;13.794;2023-02-01T11:11:19;8.57;;;2.77;;
19002;SDS011;9634;51.040;13.794;2023-02-01T11:16:30;11.47;;;2.30;;
19002;SDS011;9634;51.040;13.794;2023-02-01T11:21:35;8.67;;;2.20;;
19002;SDS011;9634;51.040;13.794;2023-02-01T11:26:38;6.47;;;2.17;;
19002;SDS011;9634;51.040;13.794;2023-02-01T11:31:44;9.47;;;2.87;;
19002;SDS011;9634;51.040;13.794;2023-02-01T11:36:47;7.57;;;2.63;;
19002;SDS011;9634;51.040;13.794;2023-02-01T11:41:55;5.30;;;2.10;;
19002;SDS011;9634;51.040;13.794;2023-02-01T11:47:22;9.50;;;2.17;;
19002;SDS011;9634;51.040;13.794;2023-02-01T11:52:30;6.07;;;2.07;;
19002;SDS011;9634;51.040;13.794;2023-02-01T11:57:48;9.53;;;2.23;;
19002;SDS011;9634;51.040;13.794;2023-02-01T12:08:49;7.87;;;1.83;;
19002;SDS011;9634;51.040;13.794;2023-02-01T12:14:08;10.50;;;2.53;;
19002;SDS011;9634;51.040;13.794;2023-02-01T12:19:26;9.67;;;2.00;;
19002;SDS011;9634;51.040;13.794;2023-02-01T12:24:48;7.30;;;1.60;;
19002;SDS011;9634;51.040;13.794;2023-02-01T12:30:02;8.23;;;1.80;;
19002;SDS011;9634;51.040;13.794;2023-02-01T12:35:41;4.93;;;1.83;;
19002;SDS011;9634;51.040;13.794;2023-02-01T12:41:05;7.97;;;2.00;;
19002;SDS011;9634;51.040;13.794;2023-02-01T12:46:19;3.97;;;1.63;;
19002;SDS011;9634;51.040;13.794;2023-02-01T12:51:28;4.80;;;1.60;;
19002;SDS011;9634;51.040;13.794;2023-02-01T12:56:37;8.60;;;1.87;;
19002;SDS011;9634;51.040;13.794;2023-02-01T13:01:44;6.80;;;2.10;;
19002;SDS011;9634;51.040;13.794;2023-02-01T13:06:53;8.57;;;2.10;;
19002;SDS011;9634;51.040;13.794;2023-02-01T13:12:06;9.97;;;2.20;;
19002;SDS011;9634;51.040;13.794;2023-02-01T13:17:15;8.07;;;2.60;;
19002;SDS011;9634;51.040;13.794;2023-02-01T13:22:27;10.23;;;1.87;;
19002;SDS011;9634;51.040;13.794;2023-02-01T13:27:34;9.83;;;2.53;;
19002;SDS011;9634;51.040;13.794;2023-02-01T13:32:49;9.10;;;2.00;;
19002;SDS011;9634;51.040;13.794;2023-02-01T13:44:01;5.00;;;1.80;;
19002;SDS011;9634;51.040;13.794;2023-02-01T13:49:06;6.20;;;1.83;;
19002;SDS011;9634;51.040;13.794;2023-02-01T13:54:24;6.90;;;1.73;;
19002;SDS011;9634;51.040;13.794;2023-02-01T14:05:11;7.73;;;2.03;;
19002;SDS011;9634;51.040;13.794;2023-02-01T14:10:49;4.93;;;1.90;;
19002;SDS011;9634;51.040;13.794;2023-02-01T14:16:13;7.30;;;2.13;;
19002;SDS011;9634;51.040;13.794;2023-02-01T14:21:17;8.03;;;1.53;;
19002;SDS011;9634;51.040;13.794;2023-02-01T14:26:25;7.13;;;1.50;;
19002;SDS011;9634;51.040;13.794;2023-02-01T14:31:37;8.40;;;2.00;;
19002;SDS011;9634;51.040;13.794;2023-02-01T14:37:04;7.03;;;2.33;;
19002;SDS011;9634;51.040;13.794;2023-02-01T14:42:18;12.00;;;3.57;;
19002;SDS011;9634;51.040;13.794;2023-02-01T14:47:27;8.30;;;2.20;;
19002;SDS011;9634;51.040;13.794;2023-02-01T14:52:33;10.07;;;2.27;;
19002;SDS011;9634;51.040;13.794;2023-02-01T14:57:40;7.73;;;2.00;;
19002;SDS011;9634;51.040;13.794;2023-02-01T15:02:44;7.90;;;1.60;;
19002;SDS011;9634;51.040;13.794;2023-02-01T15:07:50;9.13;;;2.00;;
19002;SDS011;9634;51.040;13.794;2023-02-01T15:12:54;5.67;;;2.00;;
19002;SDS011;9634;51.040;13.794;2023-02-01T15:17:56;6.20;;;2.13;;
19002;SDS011;9634;51.040;13.794;2023-02-01T15:23:00;9.70;;;2.37;;
19002;SDS011;9634;51.040;13.794;2023-02-01T15:28:09;10.50;;;2.90;;
19002;SDS011;9634;51.040;13.794;2023-02-01T15:33:15;6.07;;;2.67;;
19002;SDS011;9634;51.040;13.794;2023-02-01T15:38:20;11.37;;;2.43;;
19002;SDS011;9634;51.040;13.794;2023-02-01T15:43:37;12.23;;;2.90;;
19002;SDS011;9634;51.040;13.794;2023-02-01T15:48:43;9.93;;;3.00;;
19002;SDS011;9634;51.040;13.794;2023-02-01T15:53:49;4.27;;;2.00;;
19002;SDS011;9634;51.040;13.794;2023-02-01T15:58:56;11.50;;;2.37;;
19002;SDS011;9634;51.040;13.794;2023-02-01T16:04:02;6.47;;;2.13;;
19002;SDS011;9634;51.040;13.794;2023-02-01T16:09:15;5.70;;;2.17;;
19002;SDS011;9634;51.040;13.794;2023-02-01T16:14:21;8.93;;;2.50;;
19002;SDS011;9634;51.040;13.794;2023-02-01T16:19:23;6.20;;;2.67;;
19002;SDS011;9634;51.040;13.794;2023-02-01T16:24:28;9.03;;;2.43;;
19002;SDS011;9634;51.040;13.794;2023-02-01T16:29:33;7.37;;;2.87;;
19002;SDS011;9634;51.040;13.794;2023-02-01T16:34:35;12.33;;;3.27;;
19002;SDS011;9634;51.040;13.794;2023-02-01T16:39:37;6.13;;;2.73;;
19002;SDS011;9634;51.040;13.794;2023-02-01T16:44:41;8.40;;;3.37;;
19002;SDS011;9634;51.040;13.794;2023-02-01T16:49:46;7.43;;;2.50;;
19002;SDS011;9634;51.040;13.794;2023-02-01T16:54:54;9.27;;;3.37;;
19002;SDS011;9634;51.040;13.794;2023-02-01T16:59:58;12.17;;;3.50;;
19002;SDS011;9634;51.040;13.794;2023-02-01T17:05:11;5.67;;;2.13;;
19002;SDS011;9634;51.040;13.794;2023-02-01T17:10:18;11.67;;;3.97;;
19002;SDS011;9634;51.040;13.794;2023-02-01T17:15:27;2.57;;;1.20;;
19002;SDS011;9634;51.040;13.794;2023-02-01T17:20:34;6.67;;;1.47;;
19002;SDS011;9634;51.040;13.794;2023-02-01T17:25:37;1.57;;;0.80;;
19002;SDS011;9634;51.040;13.794;2023-02-01T17:30:40;5.37;;;0.83;;
19002;SDS011;9634;51.040;13.794;2023-02-01T17:35:43;3.20;;;0.80;;
19002;SDS011;9634;51.040;13.794;2023-02-01T17:40:45;1.40;;;0.80;;
19002;SDS011;9634;51.040;13.794;2023-02-01T17:45:50;0.30;;;0.30;;
19002;SDS011;9634;51.040;13.794;2023-02-01T17:50:54;0.53;;;0.47;;
19002;SDS011;9634;51.040;13.794;2023-02-01T17:55:58;0.97;;;0.60;;
19002;SDS011;9634;51.040;13.794;2023-02-01T18:01:02;1.50;;;0.70;;
19002;SDS011;9634;51.040;13.794;2023-02-01T18:06:05;5.03;;;0.97;;
19002;SDS011;9634;51.040;13.794;2023-02-01T18:11:12;3.47;;;1.47;;
19002;SDS011;9634;51.040;13.794;2023-02-01T18:16:18;4.10;;;1.57;;
19002;SDS011;9634;51.040;13.794;2023-02-01T18:21:22;1.10;;;0.60;;
19002;SDS011;9634;51.040;13.794;2023-02-01T18:26:24;2.93;;;0.70;;
19002;SDS011;9634;51.040;13.794;2023-02-01T18:31:29;2.73;;;0.90;;
19002;SDS011;9634;51.040;13.794;2023-02-01T18:36:32;5.50;;;0.85;;
19002;SDS011;9634;51.040;13.794;2023-02-01T18:41:34;7.53;;;0.90;;
19002;SDS011;9634;51.040;13.794;2023-02-01T18:46:38;4.50;;;1.23;;
19002;SDS011;9634;51.040;13.794;2023-02-01T18:51:40;7.37;;;0.80;;
19002;SDS011;9634;51.040;13.794;2023-02-01T19:06:48;5.83;;;1.53;;
19002;SDS011;9634;51.040;13.794;2023-02-01T19:11:50;5.00;;;1.13;;
19002;SDS011;9634;51.040;13.794;2023-02-01T19:16:54;6.93;;;1.73;;
19002;SDS011;9634;51.040;13.794;2023-02-01T19:21:57;6.67;;;1.10;;
19002;SDS011;9634;51.040;13.794;2023-02-01T19:26:59;5.50;;;1.13;;
19002;SDS011;9634;51.040;13.794;2023-02-01T19:32:03;5.40;;;1.00;;
19002;SDS011;9634;51.040;13.794;2023-02-01T19:42:08;5.47;;;1.20;;
19002;SDS011;9634;51.040;13.794;2023-02-01T19:47:11;3.90;;;0.90;;
19002;SDS011;9634;51.040;13.794;2023-02-01T19:52:14;3.10;;;0.70;;
19002;SDS011;9634;51.040;13.794;2023-02-01T20:02:20;3.78;;;1.05;;
19002;SDS011;9634;51.040;13.794;2023-02-01T20:07:22;7.00;;;1.10;;
19002;SDS011;9634;51.040;13.794;2023-02-01T20:12:24;5.43;;;1.00;;
19002;SDS011;9634;51.040;13.794;2023-02-01T20:22:32;5.27;;;1.40;;
19002;SDS011;9634;51.040;13.794;2023-02-01T20:27:35;4.70;;;1.00;;
19002;SDS011;9634;51.040;13.794;2023-02-01T20:32:38;3.50;;;0.70;;
19002;SDS011;9634;51.040;13.794;2023-02-01T20:37:40;1.27;;;0.80;;
19002;SDS011;9634;51.040;13.794;2023-02-01T20:42:43;4.97;;;0.97;;
19002;SDS011;9634;51.040;13.794;2023-02-01T20:47:49;1.73;;;0.70;;
19002;SDS011;9634;51.040;13.794;2023-02-01T20:52:51;5.20;;;0.80;;
19002;SDS011;9634;51.040;13.794;2023-02-01T20:57:54;4.03;;;1.10;;
19002;SDS011;9634;51.040;13.794;2023-02-01T21:02:57;5.93;;;1.30;;
19002;SDS011;9634;51.040;13.794;2023-02-01T21:07:59;6.33;;;1.67;;
19002;SDS011;9634;51.040;13.794;2023-02-01T21:13:02;4.10;;;1.00;;
19002;SDS011;9634;51.040;13.794;2023-02-01T21:18:06;5.57;;;0.90;;
19002;SDS011;9634;51.040;13.794;2023-02-01T21:28:12;3.00;;;1.55;;
19002;SDS011;9634;51.040;13.794;2023-02-01T21:33:16;4.23;;;1.10;;
19002;SDS011;9634;51.040;13.794;2023-02-01T21:38:18;6.43;;;0.83;;
19002;SDS011;9634;51.040;13.794;2023-02-01T21:43:20;6.50;;;1.30;;
19002;SDS011;9634;51.040;13.794;2023-02-01T21:48:24;6.60;;;1.37;;
19002;SDS011;9634;51.040;13.794;2023-02-01T21:53:26;2.93;;;1.03;;
19002;SDS011;9634;51.040;13.794;2023-02-01T21:58:28;2.70;;;0.90;;
19002;SDS011;9634;51.040;13.794;2023-02-01T22:03:32;5.20;;;1.30;;
19002;SDS011;9634;51.040;13.794;2023-02-01T22:08:35;5.23;;;1.10;;
19002;SDS011;9634;51.040;13.794;2023-02-01T22:13:38;3.50;;;1.20;;
19002;SDS011;9634;51.040;13.794;2023-02-01T22:18:42;4.23;;;1.30;;
19002;SDS011;9634;51.040;13.794;2023-02-01T22:23:49;5.20;;;1.30;;
19002;SDS011;9634;51.040;13.794;2023-02-01T22:28:52;5.87;;;1.50;;
19002;SDS011;9634;51.040;13.794;2023-02-01T22:33:56;1.80;;;1.40;;
19002;SDS011;9634;51.040;13.794;2023-02-01T22:38:58;5.97;;;1.57;;
19002;SDS011;9634;51.040;13.794;2023-02-01T22:44:00;9.57;;;1.97;;
19002;SDS011;9634;51.040;13.794;2023-02-01T22:49:04;3.73;;;1.80;;
19002;SDS011;9634;51.040;13.794;2023-02-01T22:54:06;6.70;;;1.70;;
19002;SDS011;9634;51.040;13.794;2023-02-01T22:59:12;7.53;;;1.50;;
19002;SDS011;9634;51.040;13.794;2023-02-01T23:04:16;7.67;;;1.80;;
19002;SDS011;9634;51.040;13.794;2023-02-01T23:09:21;5.87;;;1.50;;
19002;SDS011;9634;51.040;13.794;2023-02-01T23:14:25;11.47;;;1.67;;
19002;SDS011;9634;51.040;13.794;2023-02-01T23:19:28;6.33;;;1.60;;
19002;SDS011;9634;51.040;13.794;2023-02-01T23:24:31;4.20;;;1.17;;
19002;SDS011;9634;51.040;13.794;2023-02-01T23:29:33;3.83;;;1.47;;
19002;SDS011;9634;51.040;13.794;2023-02-01T23:34:36;8.10;;;1.30;;
19002;SDS011;9634;51.040;13.794;2023-02-01T23:39:39;6.10;;;1.43;;
19002;SDS011;9634;51.040;13.794;2023-02-01T23:44:42;6.10;;;1.17;;
19002;SDS011;9634;51.040;13.794;2023-02-01T23:49:45;4.43;;;1.27;;
19002;SDS011;9634;51.040;13.794;2023-02-01T23:54:47;7.87;;;1.27;;
19002;SDS011;9634;51.040;13.794;2023-02-01T23:59:50;6.90;;;1.17;;
